createdAt,value
2018-01-10T00:00:33.574Z,95.50
2018-01-10T00:03:08.061Z,95.10
2018-01-10T00:05:42.596Z,95.60
2018-01-10T00:08:16.265Z,95.40
2018-01-10T00:10:50.601Z,94.70
2018-01-10T00:13:24.144Z,94.70
2018-01-10T00:15:58.716Z,94.80
2018-01-10T00:18:32.426Z,94.50
2018-01-10T00:21:06.137Z,94.80
2018-01-10T00:23:39.828Z,94.50
2018-01-10T00:26:13.354Z,95.10
2018-01-10T00:28:47.032Z,95.40
2018-01-10T00:31:20.644Z,95.70
2018-01-10T00:33:55.169Z,95.80
2018-01-10T00:36:29.472Z,95.80
2018-01-10T00:39:03.053Z,95.80
2018-01-10T00:41:36.674Z,95.40
2018-01-10T00:44:10.303Z,95.60
2018-01-10T00:46:43.968Z,95.80
2018-01-10T00:49:17.538Z,96.50
2018-01-10T00:51:51.197Z,97.00
2018-01-10T00:54:24.797Z,97.10
2018-01-10T00:56:58.396Z,97.20
2018-01-10T00:59:31.989Z,97.50
2018-01-10T01:02:05.576Z,97.00
2018-01-10T01:04:39.310Z,97.40
2018-01-10T01:07:13.113Z,97.00
2018-01-10T01:09:46.683Z,96.50
2018-01-10T01:12:20.301Z,96.50
2018-01-10T01:14:54.613Z,96.60
2018-01-10T01:17:28.207Z,96.60
2018-01-10T01:20:01.809Z,97.20
2018-01-10T01:22:36.447Z,97.00
2018-01-10T01:25:10.746Z,97.90
2018-01-10T01:27:44.269Z,97.80
2018-01-10T01:30:17.834Z,97.60
2018-01-10T01:32:51.392Z,97.90
2018-01-10T01:35:25.048Z,98.20
2018-01-10T01:37:59.380Z,97.50
2018-01-10T01:40:33.850Z,97.10
2018-01-10T01:43:08.217Z,97.60
2018-01-10T01:45:42.085Z,97.50
2018-01-10T01:48:15.729Z,98.00
2018-01-10T01:50:49.312Z,98.70
2018-01-10T01:53:22.926Z,98.60
2018-01-10T01:55:56.567Z,98.70
2018-01-10T01:58:30.118Z,98.50
2018-01-10T02:01:04.441Z,98.70
2018-01-10T02:03:38.034Z,98.70
2018-01-10T02:06:11.673Z,98.30
2018-01-10T02:08:46.156Z,99.00
2018-01-10T02:11:19.764Z,99.00
2018-01-10T02:13:53.369Z,98.90
2018-01-10T02:16:27.085Z,98.00
2018-01-10T02:19:00.662Z,99.10
2018-01-10T02:21:34.275Z,98.50
2018-01-10T02:24:07.873Z,98.60
2018-01-10T02:26:41.419Z,98.90
2018-01-10T02:29:15.074Z,99.10
2018-01-10T02:31:48.676Z,98.40
2018-01-10T02:34:22.477Z,99.10
2018-01-10T02:36:56.174Z,99.50
2018-01-10T02:39:29.788Z,99.70
2018-01-10T02:42:03.314Z,98.90
2018-01-10T02:44:36.993Z,99.10
2018-01-10T02:47:10.579Z,99.20
2018-01-10T02:49:44.098Z,99.70
2018-01-10T02:52:17.840Z,99.90
2018-01-10T02:54:51.470Z,99.20
2018-01-10T02:57:25.801Z,99.10
2018-01-10T02:59:59.404Z,99.10
2018-01-10T03:02:33.128Z,99.00
2018-01-10T03:05:07.638Z,99.30
2018-01-10T03:07:41.243Z,99.30
2018-01-10T03:10:14.996Z,98.80
2018-01-10T03:12:49.454Z,99.90
2018-01-10T03:15:23.090Z,99.90
2018-01-10T03:17:56.864Z,99.50
2018-01-10T03:20:30.401Z,99.90
2018-01-10T03:23:04.161Z,99.90
2018-01-10T03:25:37.739Z,99.90
2018-01-10T03:28:11.292Z,99.90
2018-01-10T03:30:44.906Z,99.90
2018-01-10T03:33:18.452Z,99.90
2018-01-10T03:35:52.792Z,99.90
2018-01-10T03:38:26.482Z,99.90
2018-01-10T03:41:00.050Z,99.90
2018-01-10T03:43:33.596Z,99.90
2018-01-10T03:46:07.304Z,99.90
2018-01-10T03:48:40.886Z,99.90
2018-01-10T03:51:15.183Z,99.90
2018-01-10T03:53:48.813Z,99.90
2018-01-10T03:56:23.129Z,99.90
2018-01-10T03:58:56.716Z,99.90
2018-01-10T04:01:30.312Z,99.90
2018-01-10T04:04:04.959Z,99.90
2018-01-10T04:06:38.582Z,99.90
2018-01-10T04:09:12.147Z,99.90
2018-01-10T04:11:46.477Z,99.90
2018-01-10T04:14:20.981Z,99.90
2018-01-10T04:16:55.435Z,99.90
2018-01-10T04:19:29.165Z,99.90
2018-01-10T04:22:02.939Z,99.90
2018-01-10T04:24:36.893Z,99.90
2018-01-10T04:27:10.599Z,99.90
2018-01-10T04:29:45.092Z,99.90
2018-01-10T04:32:19.784Z,99.90
2018-01-10T04:34:53.444Z,99.90
2018-01-10T04:37:27.042Z,99.80
2018-01-10T04:40:00.783Z,99.90
2018-01-10T04:42:34.377Z,99.90
2018-01-10T04:45:08.070Z,99.90
2018-01-10T04:47:41.687Z,99.90
2018-01-10T04:50:15.279Z,99.90
2018-01-10T04:52:48.913Z,99.90
2018-01-10T04:55:22.726Z,99.90
2018-01-10T04:57:56.498Z,99.90
2018-01-10T05:00:30.110Z,99.90
2018-01-10T05:03:03.697Z,99.90
2018-01-10T05:05:38.324Z,99.90
2018-01-10T05:08:11.993Z,99.90
2018-01-10T05:10:45.659Z,99.90
2018-01-10T05:13:19.336Z,99.90
2018-01-10T05:15:53.076Z,99.90
2018-01-10T05:18:26.732Z,99.90
2018-01-10T05:21:00.278Z,99.90
2018-01-10T05:23:33.863Z,99.90
2018-01-10T05:26:08.252Z,99.90
2018-01-10T05:28:41.876Z,99.90
2018-01-10T05:31:15.448Z,99.90
2018-01-10T05:33:48.980Z,99.90
2018-01-10T05:36:22.654Z,99.90
2018-01-10T05:38:56.412Z,99.90
2018-01-10T05:41:30.198Z,99.90
2018-01-10T05:44:03.765Z,99.90
2018-01-10T05:46:38.292Z,99.90
2018-01-10T05:49:11.928Z,99.90
2018-01-10T05:51:45.692Z,99.90
2018-01-10T05:54:19.375Z,99.90
2018-01-10T05:56:53.874Z,99.90
2018-01-10T05:59:27.555Z,99.90
2018-01-10T06:02:01.217Z,99.90
2018-01-10T06:04:34.769Z,99.90
2018-01-10T06:07:08.448Z,99.90
2018-01-10T06:09:42.128Z,99.90
2018-01-10T06:12:15.631Z,99.90
2018-01-10T06:14:49.224Z,99.90
2018-01-10T06:17:23.740Z,99.90
2018-01-10T06:19:57.506Z,99.90
2018-01-10T06:22:31.056Z,99.90
2018-01-10T06:25:04.961Z,99.90
2018-01-10T06:27:38.640Z,99.90
2018-01-10T06:30:12.265Z,99.90
2018-01-10T06:32:46.794Z,99.90
2018-01-10T06:35:20.382Z,99.90
2018-01-10T06:37:53.993Z,99.90
2018-01-10T06:40:27.711Z,99.90
2018-01-10T06:43:01.293Z,99.90
2018-01-10T06:45:34.884Z,99.90
2018-01-10T06:48:08.493Z,99.90
2018-01-10T15:22:13.299Z,92.20
2018-01-10T15:24:46.941Z,92.20
2018-01-10T15:27:21.341Z,91.50
2018-01-10T15:29:55.031Z,91.40
2018-01-10T15:32:28.563Z,91.50
2018-01-10T15:35:02.856Z,91.60
2018-01-10T15:37:36.360Z,91.60
2018-01-10T15:40:09.911Z,92.60
2018-01-10T15:42:43.498Z,93.30
2018-01-10T15:45:17.020Z,94.00
2018-01-10T15:47:50.555Z,94.60
2018-01-10T15:50:24.201Z,93.90
2018-01-10T15:52:57.940Z,93.30
2018-01-10T15:55:32.493Z,93.00
2018-01-10T15:58:06.043Z,93.00
2018-01-10T16:00:39.696Z,93.40
2018-01-10T16:03:13.256Z,94.70
2018-01-10T16:05:47.580Z,98.10
2018-01-10T16:08:21.187Z,98.10
2018-01-10T16:10:54.783Z,98.50
2018-01-10T16:13:28.391Z,97.90
2018-01-10T16:16:01.992Z,97.10
2018-01-10T16:18:35.573Z,96.20
2018-01-10T16:21:09.125Z,95.60
2018-01-10T16:23:42.827Z,95.70
2018-01-10T16:26:16.324Z,95.80
2018-01-10T16:28:49.896Z,96.10
2018-01-10T16:31:24.205Z,97.80
2018-01-10T16:33:57.789Z,97.80
2018-01-10T16:36:31.435Z,96.80
2018-01-10T16:39:04.994Z,96.60
2018-01-10T16:41:39.322Z,98.80
2018-01-10T16:44:13.007Z,98.50
2018-01-10T16:46:47.341Z,97.50
2018-01-10T16:49:21.751Z,98.20
2018-01-10T16:51:56.064Z,98.10
2018-01-10T16:54:29.776Z,98.00
2018-01-10T16:57:03.313Z,98.50
2018-01-10T16:59:36.894Z,98.00
2018-01-10T17:02:10.439Z,97.80
2018-01-10T17:04:44.792Z,99.90
2018-01-10T17:07:18.329Z,99.90
2018-01-10T17:09:51.898Z,99.90
2018-01-10T17:12:26.413Z,99.90
2018-01-10T17:15:00.034Z,99.90
2018-01-10T17:17:33.598Z,99.90
2018-01-10T17:20:07.147Z,99.90
2018-01-10T17:22:40.843Z,99.90
2018-01-10T17:25:14.446Z,99.90
2018-01-10T17:27:47.950Z,99.90
2018-01-10T17:30:21.541Z,99.90
2018-01-10T17:32:55.943Z,99.90
2018-01-10T17:35:30.472Z,99.90
2018-01-10T17:38:04.168Z,99.90
2018-01-10T17:40:37.825Z,99.90
2018-01-10T17:43:12.298Z,99.90
2018-01-10T17:45:46.102Z,99.90
2018-01-10T17:48:19.677Z,99.90
2018-01-10T17:50:53.220Z,99.90
2018-01-10T17:53:26.917Z,99.90
2018-01-10T17:56:00.493Z,99.90
2018-01-10T17:58:34.000Z,99.90
2018-01-10T18:01:07.601Z,99.90
2018-01-10T18:03:41.120Z,99.90
2018-01-10T18:06:14.683Z,99.90
2018-01-10T18:08:48.258Z,99.90
2018-01-10T18:11:21.820Z,99.90
2018-01-10T18:13:56.112Z,99.90
2018-01-10T18:16:29.799Z,99.90
2018-01-10T18:19:03.420Z,99.90
2018-01-10T18:21:37.015Z,99.90
2018-01-10T18:24:10.537Z,99.90
2018-01-10T18:26:44.109Z,99.90
2018-01-10T18:29:17.700Z,99.90
2018-01-10T18:31:52.149Z,99.90
2018-01-10T18:34:25.695Z,99.90
2018-01-10T18:36:59.332Z,99.90
2018-01-10T18:39:33.036Z,99.90
2018-01-10T18:42:06.559Z,99.90
2018-01-10T18:44:40.123Z,99.90
2018-01-10T18:47:13.734Z,99.90
2018-01-10T18:49:48.154Z,99.90
2018-01-10T18:52:21.717Z,99.90
2018-01-10T18:54:55.228Z,99.90
2018-01-10T18:57:28.804Z,99.90
2018-01-10T19:00:02.469Z,99.90
2018-01-10T19:02:36.016Z,99.90
2018-01-10T19:05:09.632Z,99.90
2018-01-10T19:07:43.971Z,99.90
2018-01-10T19:10:17.683Z,99.90
2018-01-10T19:12:51.267Z,99.90
2018-01-10T19:15:24.866Z,99.90
2018-01-10T19:17:58.683Z,99.90
2018-01-10T19:20:32.187Z,99.90
2018-01-10T19:23:05.895Z,99.90
2018-01-10T19:25:40.192Z,99.90
2018-01-10T19:28:13.780Z,99.90
2018-01-10T19:30:47.331Z,99.90
2018-01-10T19:33:21.024Z,99.90
2018-01-10T19:35:54.547Z,99.90
2018-01-10T19:38:28.297Z,99.90
2018-01-10T19:41:02.601Z,99.90
2018-01-10T19:43:36.342Z,99.90
2018-01-10T19:46:09.898Z,99.90
2018-01-10T19:48:43.528Z,99.90
2018-01-10T19:51:17.191Z,99.90
2018-01-10T19:53:50.806Z,99.90
2018-01-10T19:56:24.539Z,99.90
2018-01-10T19:58:58.264Z,99.90
2018-01-10T20:01:32.569Z,99.90
2018-01-10T20:04:06.247Z,99.90
2018-01-10T20:06:39.771Z,99.90
2018-01-10T20:09:13.354Z,99.90
2018-01-10T20:11:46.880Z,99.90
2018-01-10T20:14:21.302Z,99.90
2018-01-10T20:16:55.079Z,99.90
2018-01-10T20:19:28.602Z,99.90
2018-01-10T20:22:02.197Z,99.90
2018-01-10T20:24:35.796Z,99.90
2018-01-10T20:27:09.372Z,99.90
2018-01-10T20:29:42.961Z,99.90
2018-01-10T20:32:16.492Z,99.90
2018-01-10T20:34:50.061Z,99.90
2018-01-10T20:37:23.674Z,99.90
2018-01-10T20:39:57.260Z,99.90
2018-01-10T20:42:30.801Z,99.90
2018-01-10T20:45:04.438Z,99.90
2018-01-10T20:47:37.980Z,99.90
2018-01-10T20:50:11.737Z,99.90
2018-01-10T20:52:45.428Z,99.90
2018-01-10T20:55:19.828Z,99.90
2018-01-10T20:57:53.674Z,99.90
2018-01-10T21:00:27.197Z,99.90
2018-01-10T21:03:00.770Z,99.90
2018-01-10T21:05:34.502Z,99.90
2018-01-10T21:08:08.104Z,99.90
2018-01-10T21:10:41.579Z,99.90
2018-01-10T21:13:15.097Z,99.90
2018-01-10T21:15:48.630Z,99.90
2018-01-10T21:18:22.274Z,99.90
2018-01-10T21:20:56.002Z,99.90
2018-01-10T21:23:29.544Z,99.90
2018-01-10T21:26:03.822Z,99.90
2018-01-10T21:28:37.544Z,99.90
2018-01-10T21:31:11.179Z,99.90
2018-01-10T21:33:44.754Z,99.90
2018-01-10T21:36:18.371Z,99.90
2018-01-10T21:38:52.056Z,99.90
2018-01-10T21:41:27.101Z,99.90
2018-01-10T21:44:00.815Z,99.90
2018-01-10T21:46:34.452Z,99.90
2018-01-10T21:49:08.280Z,99.90
2018-01-10T21:51:42.824Z,99.90
2018-01-10T21:54:16.440Z,99.90
2018-01-10T21:56:50.055Z,99.90
2018-01-10T21:59:23.586Z,99.90
2018-01-10T22:01:57.174Z,99.90
2018-01-10T22:04:30.760Z,99.90
2018-01-10T22:07:05.013Z,99.90
2018-01-10T22:09:40.140Z,99.90
2018-01-10T22:12:15.321Z,99.90
2018-01-10T22:14:49.082Z,99.90
2018-01-10T22:17:23.581Z,99.90
2018-01-10T22:20:13.154Z,99.90
2018-01-10T22:22:47.078Z,99.90
2018-01-10T22:25:20.755Z,99.90
2018-01-10T22:27:54.537Z,99.90
2018-01-10T22:30:37.291Z,99.90
2018-01-10T22:33:11.119Z,99.90
2018-01-10T22:35:44.891Z,99.90
2018-01-10T22:38:19.925Z,99.90
2018-01-10T22:40:53.848Z,99.90
2018-01-10T22:43:27.568Z,99.90
2018-01-10T22:46:02.158Z,99.90
2018-01-10T22:48:36.707Z,99.90
2018-01-10T22:51:11.063Z,99.90
2018-01-10T22:53:44.787Z,99.90
2018-01-10T22:56:19.072Z,99.90
2018-01-10T22:58:52.941Z,99.90
2018-01-10T23:01:27.661Z,99.90
2018-01-10T23:04:02.354Z,99.90
2018-01-10T23:06:36.716Z,99.90
2018-01-10T23:09:10.597Z,99.90
2018-01-10T23:11:46.852Z,99.90
2018-01-10T23:14:21.340Z,99.90
2018-01-10T23:16:55.057Z,99.90
2018-01-10T23:19:29.851Z,99.90
2018-01-10T23:22:04.276Z,99.90
2018-01-10T23:24:37.972Z,99.90
2018-01-10T23:27:11.786Z,99.90
2018-01-10T23:29:45.668Z,99.90
2018-01-10T23:32:19.505Z,99.90
2018-01-10T23:34:54.302Z,99.90
2018-01-10T23:37:28.015Z,99.90
2018-01-10T23:40:01.876Z,99.90
2018-01-10T23:42:35.838Z,99.90
2018-01-10T23:45:09.549Z,99.90
2018-01-10T23:47:44.220Z,99.90
2018-01-10T23:50:18.124Z,99.90
2018-01-10T23:52:52.265Z,99.90
2018-01-10T23:55:26.084Z,99.90
2018-01-10T23:58:01.237Z,99.90
